sensor_id;sensor_type;location;lat;lon;timestamp;pressure;altitude;pressure_sealevel;temperature;humidity
58102;BME280;52034;51.926;6.320;2022-12-29T00:00:12;100030.00;;;9.53;98.95
58102;BME280;52034;51.926;6.320;2022-12-29T00:01:15;100019.28;;;9.34;99.32
58102;BME280;52034;51.926;6.320;2022-12-29T00:02:16;100026.34;;;9.42;99.25
58102;BME280;52034;51.926;6.320;2022-12-29T00:03:16;100016.00;;;9.48;99.52
58102;BME280;52034;51.926;6.320;2022-12-29T00:04:16;100011.41;;;9.33;99.42
58102;BME280;52034;51.926;6.320;2022-12-29T00:05:17;100017.66;;;9.41;99.31
58102;BME280;52034;51.926;6.320;2022-12-29T00:06:17;100014.22;;;9.44;99.46
58102;BME280;52034;51.926;6.320;2022-12-29T00:07:18;100007.25;;;9.44;99.04
58102;BME280;52034;51.926;6.320;2022-12-29T00:08:18;100018.63;;;9.48;99.22
58102;BME280;52034;51.926;6.320;2022-12-29T00:09:19;100016.00;;;9.48;99.12
58102;BME280;52034;51.926;6.320;2022-12-29T00:10:19;100018.53;;;9.45;99.16
58102;BME280;52034;51.926;6.320;2022-12-29T00:11:23;100023.75;;;9.45;99.33
58102;BME280;52034;51.926;6.320;2022-12-29T00:12:24;100019.38;;;9.42;99.01
58102;BME280;52034;51.926;6.320;2022-12-29T00:13:24;100012.38;;;9.38;99.48
58102;BME280;52034;51.926;6.320;2022-12-29T00:14:43;100016.72;;;9.37;99.78
58102;BME280;52034;51.926;6.320;2022-12-29T00:16:02;100014.13;;;9.39;99.58
58102;BME280;52034;51.926;6.320;2022-12-29T00:17:03;100014.03;;;9.33;99.80
58102;BME280;52034;51.926;6.320;2022-12-29T00:18:03;100006.28;;;9.37;100.00
58102;BME280;52034;51.926;6.320;2022-12-29T00:19:04;100008.06;;;9.39;99.59
58102;BME280;52034;51.926;6.320;2022-12-29T00:20:05;100003.78;;;9.44;99.66
58102;BME280;52034;51.926;6.320;2022-12-29T00:21:25;100002.97;;;9.48;99.32
58102;BME280;52034;51.926;6.320;2022-12-29T00:22:43;100004.63;;;9.43;99.10
58102;BME280;52034;51.926;6.320;2022-12-29T00:24:03;99988.16;;;9.45;99.44
58102;BME280;52034;51.926;6.320;2022-12-29T00:25:22;99995.06;;;9.43;99.30
58102;BME280;52034;51.926;6.320;2022-12-29T00:26:41;99995.06;;;9.43;99.54
58102;BME280;52034;51.926;6.320;2022-12-29T00:28:01;100007.31;;;9.49;99.61
58102;BME280;52034;51.926;6.320;2022-12-29T00:29:20;100004.66;;;9.44;99.64
58102;BME280;52034;51.926;6.320;2022-12-29T00:30:39;100008.19;;;9.48;99.53
58102;BME280;52034;51.926;6.320;2022-12-29T00:31:58;100006.47;;;9.50;99.55
58102;BME280;52034;51.926;6.320;2022-12-29T00:33:19;99997.75;;;9.48;99.64
58102;BME280;52034;51.926;6.320;2022-12-29T00:34:38;99996.03;;;9.50;99.46
58102;BME280;52034;51.926;6.320;2022-12-29T00:36:18;99985.59;;;9.50;99.64
58102;BME280;52034;51.926;6.320;2022-12-29T00:37:20;99975.16;;;9.48;99.66
58102;BME280;52034;51.926;6.320;2022-12-29T00:38:46;99986.44;;;9.49;99.84
58102;BME280;52034;51.926;6.320;2022-12-29T00:40:07;99972.53;;;9.45;100.00
58102;BME280;52034;51.926;6.320;2022-12-29T00:41:26;99973.34;;;9.41;100.00
58102;BME280;52034;51.926;6.320;2022-12-29T00:42:45;99974.19;;;9.40;100.00
58102;BME280;52034;51.926;6.320;2022-12-29T00:44:06;99974.16;;;9.39;100.00
58102;BME280;52034;51.926;6.320;2022-12-29T00:45:07;99974.03;;;9.31;100.00
58102;BME280;52034;51.926;6.320;2022-12-29T00:46:07;99969.81;;;9.41;100.00
58102;BME280;52034;51.926;6.320;2022-12-29T00:47:08;99965.50;;;9.41;100.00
58102;BME280;52034;51.926;6.320;2022-12-29T00:48:08;99967.19;;;9.37;100.00
58102;BME280;52034;51.926;6.320;2022-12-29T00:49:11;99973.28;;;9.40;100.00
58102;BME280;52034;51.926;6.320;2022-12-29T00:50:30;99966.38;;;9.42;100.00
58102;BME280;52034;51.926;6.320;2022-12-29T00:51:30;99948.97;;;9.41;100.00
58102;BME280;52034;51.926;6.320;2022-12-29T00:52:31;99952.50;;;9.43;99.71
58102;BME280;52034;51.926;6.320;2022-12-29T00:53:31;99964.63;;;9.42;99.88
58102;BME280;52034;51.926;6.320;2022-12-29T00:54:34;99964.53;;;9.34;99.85
58102;BME280;52034;51.926;6.320;2022-12-29T00:55:37;99964.59;;;9.37;99.65
58102;BME280;52034;51.926;6.320;2022-12-29T00:56:40;99957.59;;;9.36;99.93
58102;BME280;52034;51.926;6.320;2022-12-29T00:57:40;99958.56;;;9.42;99.55
58102;BME280;52034;51.926;6.320;2022-12-29T00:58:41;99958.50;;;9.37;99.25
58102;BME280;52034;51.926;6.320;2022-12-29T00:59:42;99948.97;;;9.39;99.69
58102;BME280;52034;51.926;6.320;2022-12-29T01:00:42;99956.72;;;9.34;99.53
58102;BME280;52034;51.926;6.320;2022-12-29T01:01:43;99955.94;;;9.42;99.58
58102;BME280;52034;51.926;6.320;2022-12-29T01:02:44;99952.53;;;9.46;98.55
58102;BME280;52034;51.926;6.320;2022-12-29T01:03:44;99936.88;;;9.44;99.00
58102;BME280;52034;51.926;6.320;2022-12-29T01:04:45;99949.88;;;9.41;98.82
58102;BME280;52034;51.926;6.320;2022-12-29T01:05:45;99937.72;;;9.43;99.28
58102;BME280;52034;51.926;6.320;2022-12-29T01:06:46;99938.66;;;9.47;99.58
58102;BME280;52034;51.926;6.320;2022-12-29T01:07:49;99946.34;;;9.39;99.16
58102;BME280;52034;51.926;6.320;2022-12-29T01:08:50;99937.59;;;9.35;99.15
58102;BME280;52034;51.926;6.320;2022-12-29T01:10:11;99942.06;;;9.41;98.95
58102;BME280;52034;51.926;6.320;2022-12-29T01:11:12;99942.06;;;9.43;98.77
58102;BME280;52034;51.926;6.320;2022-12-29T01:12:13;99941.09;;;9.34;98.81
58102;BME280;52034;51.926;6.320;2022-12-29T01:13:13;99937.66;;;9.37;99.08
58102;BME280;52034;51.926;6.320;2022-12-29T01:14:14;99945.50;;;9.39;99.09
58102;BME280;52034;51.926;6.320;2022-12-29T01:15:15;99942.00;;;9.40;98.89
58102;BME280;52034;51.926;6.320;2022-12-29T01:16:15;99941.97;;;9.36;99.38
58102;BME280;52034;51.926;6.320;2022-12-29T01:17:16;99942.88;;;9.39;99.05
58102;BME280;52034;51.926;6.320;2022-12-29T01:18:16;99933.31;;;9.37;98.36
58102;BME280;52034;51.926;6.320;2022-12-29T01:19:17;99926.41;;;9.43;98.66
58102;BME280;52034;51.926;6.320;2022-12-29T01:20:18;99946.38;;;9.42;98.85
58102;BME280;52034;51.926;6.320;2022-12-29T01:21:18;99947.19;;;9.36;99.28
58102;BME280;52034;51.926;6.320;2022-12-29T01:22:19;99941.16;;;9.41;98.90
58102;BME280;52034;51.926;6.320;2022-12-29T01:23:19;99939.44;;;9.41;99.20
58102;BME280;52034;51.926;6.320;2022-12-29T01:24:20;99935.88;;;9.36;99.46
58102;BME280;52034;51.926;6.320;2022-12-29T01:25:20;99935.88;;;9.34;100.00
58102;BME280;52034;51.926;6.320;2022-12-29T01:26:21;99945.38;;;9.32;100.00
58102;BME280;52034;51.926;6.320;2022-12-29T01:27:21;99957.47;;;9.27;100.00
58102;BME280;52034;51.926;6.320;2022-12-29T01:28:22;99957.34;;;9.19;100.00
58102;BME280;52034;51.926;6.320;2022-12-29T01:29:22;99953.03;;;9.20;100.00
58102;BME280;52034;51.926;6.320;2022-12-29T01:30:23;99962.63;;;9.21;100.00
58102;BME280;52034;51.926;6.320;2022-12-29T01:31:23;99957.28;;;9.15;100.00
58102;BME280;52034;51.926;6.320;2022-12-29T01:32:23;99949.47;;;9.13;100.00
58102;BME280;52034;51.926;6.320;2022-12-29T01:33:24;99950.28;;;9.11;100.00
58102;BME280;52034;51.926;6.320;2022-12-29T01:34:24;99948.53;;;9.10;100.00
58102;BME280;52034;51.926;6.320;2022-12-29T01:35:24;99947.69;;;9.11;100.00
58102;BME280;52034;51.926;6.320;2022-12-29T01:36:25;99945.94;;;9.10;100.00
58102;BME280;52034;51.926;6.320;2022-12-29T01:37:25;99951.97;;;9.09;100.00
58102;BME280;52034;51.926;6.320;2022-12-29T01:38:26;99932.03;;;9.09;100.00
58102;BME280;52034;51.926;6.320;2022-12-29T01:39:26;99926.03;;;9.15;100.00
58102;BME280;52034;51.926;6.320;2022-12-29T01:40:26;99936.63;;;9.27;100.00
58102;BME280;52034;51.926;6.320;2022-12-29T01:41:27;99929.75;;;9.32;100.00
58102;BME280;52034;51.926;6.320;2022-12-29T01:42:28;99932.34;;;9.32;100.00
58102;BME280;52034;51.926;6.320;2022-12-29T01:43:44;99936.69;;;9.30;100.00
58102;BME280;52034;51.926;6.320;2022-12-29T01:44:56;99927.97;;;9.30;100.00
58102;BME280;52034;51.926;6.320;2022-12-29T01:45:57;99934.94;;;9.29;100.00
58102;BME280;52034;51.926;6.320;2022-12-29T01:46:58;99929.72;;;9.29;100.00
58102;BME280;52034;51.926;6.320;2022-12-29T01:48:03;99934.97;;;9.32;100.00
58102;BME280;52034;51.926;6.320;2022-12-29T01:49:14;99933.28;;;9.36;100.00
58102;BME280;52034;51.926;6.320;2022-12-29T01:51:22;99930.72;;;9.41;100.00
58102;BME280;52034;51.926;6.320;2022-12-29T01:52:26;99929.84;;;9.39;100.00
58102;BME280;52034;51.926;6.320;2022-12-29T01:53:31;99920.25;;;9.37;100.00
58102;BME280;52034;51.926;6.320;2022-12-29T01:55:43;99921.28;;;9.49;100.00
58102;BME280;52034;51.926;6.320;2022-12-29T01:56:44;99913.41;;;9.44;100.00
58102;BME280;52034;51.926;6.320;2022-12-29T01:57:48;99920.44;;;9.51;100.00
58102;BME280;52034;51.926;6.320;2022-12-29T01:58:56;99914.34;;;9.48;100.00
58102;BME280;52034;51.926;6.320;2022-12-29T02:00:01;99900.47;;;9.52;100.00
58102;BME280;52034;51.926;6.320;2022-12-29T02:01:13;99900.47;;;9.50;100.00
58102;BME280;52034;51.926;6.320;2022-12-29T02:02:14;99905.59;;;9.46;100.00
58102;BME280;52034;51.926;6.320;2022-12-29T02:03:16;99909.97;;;9.48;100.00
58102;BME280;52034;51.926;6.320;2022-12-29T02:04:19;99900.38;;;9.46;100.00
58102;BME280;52034;51.926;6.320;2022-12-29T02:06:38;99894.31;;;9.47;100.00
58102;BME280;52034;51.926;6.320;2022-12-29T02:07:42;99899.63;;;9.53;100.00
58102;BME280;52034;51.926;6.320;2022-12-29T02:08:46;99896.97;;;9.50;100.00
58102;BME280;52034;51.926;6.320;2022-12-29T02:09:48;99891.75;;;9.51;100.00
58102;BME280;52034;51.926;6.320;2022-12-29T02:10:49;99899.66;;;9.56;100.00
58102;BME280;52034;51.926;6.320;2022-12-29T02:11:51;99912.69;;;9.56;100.00
58102;BME280;52034;51.926;6.320;2022-12-29T02:12:52;99902.25;;;9.53;100.00
58102;BME280;52034;51.926;6.320;2022-12-29T02:13:53;99899.66;;;9.56;100.00
58102;BME280;52034;51.926;6.320;2022-12-29T02:14:59;99905.81;;;9.63;100.00
58102;BME280;52034;51.926;6.320;2022-12-29T02:16:14;99913.63;;;9.61;100.00
58102;BME280;52034;51.926;6.320;2022-12-29T02:18:59;99906.59;;;9.56;100.00
58102;BME280;52034;51.926;6.320;2022-12-29T02:21:31;99896.16;;;9.56;100.00
58102;BME280;52034;51.926;6.320;2022-12-29T02:28:59;99891.88;;;9.61;100.00
58102;BME280;52034;51.926;6.320;2022-12-29T02:30:32;99891.88;;;9.61;100.00
58102;BME280;52034;51.926;6.320;2022-12-29T02:31:49;99899.63;;;9.54;100.00
58102;BME280;52034;51.926;6.320;2022-12-29T02:34:26;99894.47;;;9.59;100.00
58102;BME280;52034;51.926;6.320;2022-12-29T02:35:44;99891.03;;;9.63;100.00
58102;BME280;52034;51.926;6.320;2022-12-29T02:36:55;99889.34;;;9.67;99.51
58102;BME280;52034;51.926;6.320;2022-12-29T02:38:03;99892.81;;;9.64;99.19
58102;BME280;52034;51.926;6.320;2022-12-29T02:39:38;99881.44;;;9.59;99.64
58102;BME280;52034;51.926;6.320;2022-12-29T02:41:15;99894.53;;;9.64;98.86
58102;BME280;52034;51.926;6.320;2022-12-29T02:42:48;99883.22;;;9.65;98.99
58102;BME280;52034;51.926;6.320;2022-12-29T02:43:59;99883.22;;;9.62;98.88
58102;BME280;52034;51.926;6.320;2022-12-29T02:46:17;99875.47;;;9.68;98.78
58102;BME280;52034;51.926;6.320;2022-12-29T02:48:15;99870.13;;;9.59;98.45
58102;BME280;52034;51.926;6.320;2022-12-29T02:49:53;99871.06;;;9.64;97.54
58102;BME280;52034;51.926;6.320;2022-12-29T02:51:06;99871.13;;;9.71;97.66
58102;BME280;52034;51.926;6.320;2022-12-29T02:52:15;99879.06;;;9.81;97.16
58102;BME280;52034;51.926;6.320;2022-12-29T02:53:18;99881.63;;;9.75;97.10
58102;BME280;52034;51.926;6.320;2022-12-29T02:54:40;99881.56;;;9.70;97.78
58102;BME280;52034;51.926;6.320;2022-12-29T02:55:48;99864.22;;;9.72;98.09
58102;BME280;52034;51.926;6.320;2022-12-29T02:56:49;99857.31;;;9.79;96.97
58102;BME280;52034;51.926;6.320;2022-12-29T02:59:09;99867.69;;;9.73;97.14
58102;BME280;52034;51.926;6.320;2022-12-29T03:00:14;99852.00;;;9.69;97.36
58102;BME280;52034;51.926;6.320;2022-12-29T03:01:27;99859.00;;;9.72;97.27
58102;BME280;52034;51.926;6.320;2022-12-29T03:02:44;99862.63;;;9.85;96.50
58102;BME280;52034;51.926;6.320;2022-12-29T03:04:51;99856.50;;;9.81;96.51
58102;BME280;52034;51.926;6.320;2022-12-29T03:05:52;99859.22;;;9.92;95.40
58102;BME280;52034;51.926;6.320;2022-12-29T03:07:43;99866.88;;;9.78;96.84
58102;BME280;52034;51.926;6.320;2022-12-29T03:08:49;99856.50;;;9.83;95.96
58102;BME280;52034;51.926;6.320;2022-12-29T03:10:04;99844.38;;;9.88;95.71
58102;BME280;52034;51.926;6.320;2022-12-29T03:11:12;99844.31;;;9.82;96.23
58102;BME280;52034;51.926;6.320;2022-12-29T03:12:42;99841.88;;;9.99;95.09
58102;BME280;52034;51.926;6.320;2022-12-29T03:14:13;99851.38;;;9.94;95.55
58102;BME280;52034;51.926;6.320;2022-12-29T03:15:50;99836.69;;;10.02;94.94
58102;BME280;52034;51.926;6.320;2022-12-29T03:18:50;99847.13;;;10.03;94.26
58102;BME280;52034;51.926;6.320;2022-12-29T03:19:54;99847.94;;;9.96;95.04
58102;BME280;52034;51.926;6.320;2022-12-29T03:21:06;99848.88;;;10.01;94.23
58102;BME280;52034;51.926;6.320;2022-12-29T03:22:12;99840.09;;;9.93;94.68
58102;BME280;52034;51.926;6.320;2022-12-29T03:23:54;99843.56;;;9.94;95.11
58102;BME280;52034;51.926;6.320;2022-12-29T03:25:23;99841.81;;;9.91;94.88
58102;BME280;52034;51.926;6.320;2022-12-29T03:26:25;99839.16;;;9.86;95.22
58102;BME280;52034;51.926;6.320;2022-12-29T03:27:29;99849.59;;;9.85;95.29
58102;BME280;52034;51.926;6.320;2022-12-29T03:28:51;99834.81;;;9.87;95.29
58102;BME280;52034;51.926;6.320;2022-12-29T03:29:59;99852.22;;;9.88;95.03
58102;BME280;52034;51.926;6.320;2022-12-29T03:31:03;99838.25;;;9.86;95.24
58102;BME280;52034;51.926;6.320;2022-12-29T03:32:04;99844.38;;;9.88;95.27
58102;BME280;52034;51.926;6.320;2022-12-29T03:33:13;99833.84;;;9.79;95.07
58102;BME280;52034;51.926;6.320;2022-12-29T03:34:17;99844.31;;;9.80;95.27
58102;BME280;52034;51.926;6.320;2022-12-29T03:35:23;99831.25;;;9.82;95.55
58102;BME280;52034;51.926;6.320;2022-12-29T03:36:30;99844.28;;;9.77;95.35
58102;BME280;52034;51.926;6.320;2022-12-29T03:37:37;99833.00;;;9.80;95.38
58102;BME280;52034;51.926;6.320;2022-12-29T03:38:46;99846.09;;;9.87;95.04
58102;BME280;52034;51.926;6.320;2022-12-29T03:39:50;99829.47;;;9.76;95.55
58102;BME280;52034;51.926;6.320;2022-12-29T03:40:55;99835.63;;;9.81;95.29
58102;BME280;52034;51.926;6.320;2022-12-29T03:42:01;99830.34;;;9.78;95.27
58102;BME280;52034;51.926;6.320;2022-12-29T03:43:03;99818.31;;;9.88;94.95
58102;BME280;52034;51.926;6.320;2022-12-29T03:44:06;99824.38;;;9.88;94.86
58102;BME280;52034;51.926;6.320;2022-12-29T03:45:09;99832.19;;;9.87;94.67
58102;BME280;52034;51.926;6.320;2022-12-29T03:46:10;99839.00;;;9.73;95.52
58102;BME280;52034;51.926;6.320;2022-12-29T03:47:14;99827.63;;;9.67;95.78
58102;BME280;52034;51.926;6.320;2022-12-29T03:48:14;99812.06;;;9.74;95.65
58102;BME280;52034;51.926;6.320;2022-12-29T03:49:15;99817.34;;;9.80;95.09
58102;BME280;52034;51.926;6.320;2022-12-29T03:50:15;99820.81;;;9.77;95.46
58102;BME280;52034;51.926;6.320;2022-12-29T03:51:16;99825.97;;;9.74;95.59
58102;BME280;52034;51.926;6.320;2022-12-29T03:52:17;99829.47;;;9.75;95.49
58102;BME280;52034;51.926;6.320;2022-12-29T03:53:19;99837.22;;;9.71;95.98
58102;BME280;52034;51.926;6.320;2022-12-29T03:54:19;99832.91;;;9.72;95.42
58102;BME280;52034;51.926;6.320;2022-12-29T03:55:20;99825.09;;;9.72;95.40
58102;BME280;52034;51.926;6.320;2022-12-29T03:56:45;99822.50;;;9.74;95.61
58102;BME280;52034;51.926;6.320;2022-12-29T03:57:48;99833.75;;;9.71;95.41
58102;BME280;52034;51.926;6.320;2022-12-29T03:58:54;99826.81;;;9.71;95.57
58102;BME280;52034;51.926;6.320;2022-12-29T04:00:04;99835.50;;;9.70;95.55
58102;BME280;52034;51.926;6.320;2022-12-29T04:01:15;99830.31;;;9.75;95.11
58102;BME280;52034;51.926;6.320;2022-12-29T04:02:17;99830.41;;;9.81;95.07
58102;BME280;52034;51.926;6.320;2022-12-29T04:03:17;99833.00;;;9.80;95.40
58102;BME280;52034;51.926;6.320;2022-12-29T04:04:18;99831.22;;;9.77;95.47
58102;BME280;52034;51.926;6.320;2022-12-29T04:05:18;99840.75;;;9.75;95.66
58102;BME280;52034;51.926;6.320;2022-12-29T04:06:19;99841.66;;;9.76;95.55
58102;BME280;52034;51.926;6.320;2022-12-29T04:07:24;99833.88;;;9.80;95.72
58102;BME280;52034;51.926;6.320;2022-12-29T04:08:26;99845.97;;;9.75;95.73
58102;BME280;52034;51.926;6.320;2022-12-29T04:09:27;99848.59;;;9.75;96.16
58102;BME280;52034;51.926;6.320;2022-12-29T04:10:27;99849.41;;;9.69;96.04
58102;BME280;52034;51.926;6.320;2022-12-29T04:11:31;99852.00;;;9.69;96.19
58102;BME280;52034;51.926;6.320;2022-12-29T04:12:32;99853.72;;;9.67;96.84
58102;BME280;52034;51.926;6.320;2022-12-29T04:13:32;99857.22;;;9.69;96.39
58102;BME280;52034;51.926;6.320;2022-12-29T04:14:33;99848.59;;;9.77;96.28
58102;BME280;52034;51.926;6.320;2022-12-29T04:15:34;99856.38;;;9.70;95.98
58102;BME280;52034;51.926;6.320;2022-12-29T04:16:35;99839.91;;;9.75;96.14
58102;BME280;52034;51.926;6.320;2022-12-29T04:17:37;99843.38;;;9.77;95.50
58102;BME280;52034;51.926;6.320;2022-12-29T04:18:39;99841.66;;;9.76;95.71
58102;BME280;52034;51.926;6.320;2022-12-29T04:19:39;99845.22;;;9.84;95.21
58102;BME280;52034;51.926;6.320;2022-12-29T04:20:39;99849.50;;;9.77;95.57
58102;BME280;52034;51.926;6.320;2022-12-29T04:21:58;99848.47;;;9.64;96.24
58102;BME280;52034;51.926;6.320;2022-12-29T04:23:00;99846.78;;;9.69;95.89
58102;BME280;52034;51.926;6.320;2022-12-29T04:24:00;99843.38;;;9.75;95.06
58102;BME280;52034;51.926;6.320;2022-12-29T04:25:01;99841.59;;;9.73;95.63
58102;BME280;52034;51.926;6.320;2022-12-29T04:26:02;99847.72;;;9.75;95.74
58102;BME280;52034;51.926;6.320;2022-12-29T04:27:03;99852.03;;;9.73;95.83
58102;BME280;52034;51.926;6.320;2022-12-29T04:28:15;99845.03;;;9.68;95.96
58102;BME280;52034;51.926;6.320;2022-12-29T04:29:22;99845.94;;;9.69;96.05
58102;BME280;52034;51.926;6.320;2022-12-29T04:30:38;99840.75;;;9.72;95.99
58102;BME280;52034;51.926;6.320;2022-12-29T04:31:56;99844.19;;;9.71;95.80
58102;BME280;52034;51.926;6.320;2022-12-29T04:32:57;99843.31;;;9.69;95.76
58102;BME280;52034;51.926;6.320;2022-12-29T04:33:57;99845.00;;;9.65;95.71
58102;BME280;52034;51.926;6.320;2022-12-29T04:34:58;99843.31;;;9.69;95.83
58102;BME280;52034;51.926;6.320;2022-12-29T04:35:58;99844.09;;;9.63;96.22
58102;BME280;52034;51.926;6.320;2022-12-29T04:36:59;99832.69;;;9.50;96.41
58102;BME280;52034;51.926;6.320;2022-12-29T04:37:59;99847.59;;;9.62;96.22
58102;BME280;52034;51.926;6.320;2022-12-29T04:39:00;99848.38;;;9.58;96.65
58102;BME280;52034;51.926;6.320;2022-12-29T04:40:01;99849.22;;;9.54;96.79
58102;BME280;52034;51.926;6.320;2022-12-29T04:41:02;99850.13;;;9.56;96.70
58102;BME280;52034;51.926;6.320;2022-12-29T04:42:03;99851.88;;;9.57;96.69
58102;BME280;52034;51.926;6.320;2022-12-29T04:43:04;99852.75;;;9.58;96.71
58102;BME280;52034;51.926;6.320;2022-12-29T04:44:07;99850.13;;;9.56;97.13
58102;BME280;52034;51.926;6.320;2022-12-29T04:45:10;99850.94;;;9.53;97.24
58102;BME280;52034;51.926;6.320;2022-12-29T04:46:23;99859.59;;;9.48;97.74
58102;BME280;52034;51.926;6.320;2022-12-29T04:47:52;99862.09;;;9.42;98.17
58102;BME280;52034;51.926;6.320;2022-12-29T04:49:17;99858.69;;;9.49;98.08
58102;BME280;52034;51.926;6.320;2022-12-29T04:50:21;99866.53;;;9.49;98.21
58102;BME280;52034;51.926;6.320;2022-12-29T04:51:28;99867.31;;;9.43;98.24
58102;BME280;52034;51.926;6.320;2022-12-29T04:52:28;99875.97;;;9.41;98.57
58102;BME280;52034;51.926;6.320;2022-12-29T04:53:30;99875.16;;;9.43;98.63
58102;BME280;52034;51.926;6.320;2022-12-29T04:54:32;99875.16;;;9.45;98.36
58102;BME280;52034;51.926;6.320;2022-12-29T04:55:42;99869.91;;;9.39;98.64
58102;BME280;52034;51.926;6.320;2022-12-29T04:56:43;99842.91;;;9.36;99.02
58102;BME280;52034;51.926;6.320;2022-12-29T04:57:44;99833.28;;;9.31;99.47
58102;BME280;52034;51.926;6.320;2022-12-29T04:58:48;99834.97;;;9.27;99.42
58102;BME280;52034;51.926;6.320;2022-12-29T04:59:48;99846.31;;;9.29;99.53
58102;BME280;52034;51.926;6.320;2022-12-29T05:00:50;99841.03;;;9.26;100.00
58102;BME280;52034;51.926;6.320;2022-12-29T05:01:51;99834.16;;;9.30;99.57
58102;BME280;52034;51.926;6.320;2022-12-29T05:02:51;99860.22;;;9.30;99.25
58102;BME280;52034;51.926;6.320;2022-12-29T05:03:52;99855.78;;;9.23;99.48
58102;BME280;52034;51.926;6.320;2022-12-29T05:04:52;99858.38;;;9.23;99.64
58102;BME280;52034;51.926;6.320;2022-12-29T05:05:54;99857.53;;;9.24;99.19
58102;BME280;52034;51.926;6.320;2022-12-29T05:06:55;99870.53;;;9.22;99.63
58102;BME280;52034;51.926;6.320;2022-12-29T05:07:55;99870.53;;;9.22;99.56
58102;BME280;52034;51.926;6.320;2022-12-29T05:08:56;99866.25;;;9.27;99.48
58102;BME280;52034;51.926;6.320;2022-12-29T05:09:56;99870.59;;;9.25;98.94
58102;BME280;52034;51.926;6.320;2022-12-29T05:10:57;99862.78;;;9.27;99.31
58102;BME280;52034;51.926;6.320;2022-12-29T05:11:57;99874.03;;;9.24;99.17
58102;BME280;52034;51.926;6.320;2022-12-29T05:12:58;99856.66;;;9.23;99.14
58102;BME280;52034;51.926;6.320;2022-12-29T05:13:58;99867.16;;;9.28;99.19
58102;BME280;52034;51.926;6.320;2022-12-29T05:14:58;99863.72;;;9.30;98.61
58102;BME280;52034;51.926;6.320;2022-12-29T05:15:59;99868.88;;;9.29;98.31
58102;BME280;52034;51.926;6.320;2022-12-29T05:16:59;99875.84;;;9.28;98.73
58102;BME280;52034;51.926;6.320;2022-12-29T05:18:00;99870.63;;;9.28;98.13
58102;BME280;52034;51.926;6.320;2022-12-29T05:19:00;99871.44;;;9.26;98.27
58102;BME280;52034;51.926;6.320;2022-12-29T05:20:01;99866.22;;;9.23;98.65
58102;BME280;52034;51.926;6.320;2022-12-29T05:21:01;99872.25;;;9.20;98.48
58102;BME280;52034;51.926;6.320;2022-12-29T05:22:02;99870.50;;;9.19;97.84
58102;BME280;52034;51.926;6.320;2022-12-29T05:23:03;99872.25;;;9.20;97.94
58102;BME280;52034;51.926;6.320;2022-12-29T05:24:04;99868.72;;;9.18;97.28
58102;BME280;52034;51.926;6.320;2022-12-29T05:25:05;99871.28;;;9.13;97.91
58102;BME280;52034;51.926;6.320;2022-12-29T05:26:11;99872.19;;;9.17;97.69
58102;BME280;52034;51.926;6.320;2022-12-29T05:27:30;99875.72;;;9.20;97.20
58102;BME280;52034;51.926;6.320;2022-12-29T05:28:43;99866.94;;;9.14;97.00
58102;BME280;52034;51.926;6.320;2022-12-29T05:29:47;99870.41;;;9.13;97.21
58102;BME280;52034;51.926;6.320;2022-12-29T05:30:49;99885.06;;;9.04;97.74
58102;BME280;52034;51.926;6.320;2022-12-29T05:31:51;99875.56;;;9.10;97.72
58102;BME280;52034;51.926;6.320;2022-12-29T05:32:51;99863.41;;;9.09;97.14
58102;BME280;52034;51.926;6.320;2022-12-29T05:33:52;99877.25;;;9.06;97.52
58102;BME280;52034;51.926;6.320;2022-12-29T05:34:53;99892.88;;;9.04;97.78
58102;BME280;52034;51.926;6.320;2022-12-29T05:35:53;99887.66;;;9.04;97.47
58102;BME280;52034;51.926;6.320;2022-12-29T05:36:55;99887.63;;;9.03;97.79
58102;BME280;52034;51.926;6.320;2022-12-29T05:37:55;99890.28;;;9.06;97.68
58102;BME280;52034;51.926;6.320;2022-12-29T05:38:55;99891.16;;;9.05;97.72
58102;BME280;52034;51.926;6.320;2022-12-29T05:39:57;99892.06;;;9.09;97.26
58102;BME280;52034;51.926;6.320;2022-12-29T05:40:57;99890.25;;;9.04;97.64
58102;BME280;52034;51.926;6.320;2022-12-29T05:42:20;99883.47;;;9.14;96.71
58102;BME280;52034;51.926;6.320;2022-12-29T05:43:41;99899.00;;;9.08;96.06
58102;BME280;52034;51.926;6.320;2022-12-29T05:44:51;99905.09;;;9.10;96.58
58102;BME280;52034;51.926;6.320;2022-12-29T05:46:12;99893.03;;;9.17;96.18
58102;BME280;52034;51.926;6.320;2022-12-29T05:47:39;99909.44;;;9.08;96.30
58102;BME280;52034;51.926;6.320;2022-12-29T05:49:09;99912.97;;;9.13;95.55
58102;BME280;52034;51.926;6.320;2022-12-29T05:50:32;99911.22;;;9.12;95.21
58102;BME280;52034;51.926;6.320;2022-12-29T05:51:43;99928.50;;;9.07;95.41
58102;BME280;52034;51.926;6.320;2022-12-29T05:52:43;99941.41;;;8.98;95.34
58102;BME280;52034;51.926;6.320;2022-12-29T05:53:43;99931.63;;;8.84;96.37
58102;BME280;52034;51.926;6.320;2022-12-29T05:54:44;99936.84;;;8.84;96.86
58102;BME280;52034;51.926;6.320;2022-12-29T05:55:47;99942.16;;;8.89;95.89
58102;BME280;52034;51.926;6.320;2022-12-29T05:56:48;99919.56;;;8.88;95.84
58102;BME280;52034;51.926;6.320;2022-12-29T05:57:48;99953.50;;;8.94;94.93
58102;BME280;52034;51.926;6.320;2022-12-29T05:58:50;99953.25;;;8.79;96.14
58102;BME280;52034;51.926;6.320;2022-12-29T05:59:51;99942.81;;;8.77;95.54
58102;BME280;52034;51.926;6.320;2022-12-29T06:00:51;99938.50;;;8.81;95.21
58102;BME280;52034;51.926;6.320;2022-12-29T06:01:51;99950.72;;;8.83;95.31
58102;BME280;52034;51.926;6.320;2022-12-29T06:02:52;99957.63;;;8.81;95.60
58102;BME280;52034;51.926;6.320;2022-12-29T06:03:52;99944.59;;;8.80;95.48
58102;BME280;52034;51.926;6.320;2022-12-29T06:04:54;99951.47;;;8.75;95.55
58102;BME280;52034;51.926;6.320;2022-12-29T06:05:54;99941.03;;;8.73;95.36
58102;BME280;52034;51.926;6.320;2022-12-29T06:06:55;99952.31;;;8.75;95.72
58102;BME280;52034;51.926;6.320;2022-12-29T06:08:10;99939.44;;;8.83;95.22
58102;BME280;52034;51.926;6.320;2022-12-29T06:09:10;99939.31;;;8.77;95.25
58102;BME280;52034;51.926;6.320;2022-12-29T06:10:11;99930.78;;;8.84;94.86
58102;BME280;52034;51.926;6.320;2022-12-29T06:11:26;99940.94;;;8.68;95.09
58102;BME280;52034;51.926;6.320;2022-12-29T06:12:30;99927.94;;;8.72;94.40
58102;BME280;52034;51.926;6.320;2022-12-29T06:13:30;99932.41;;;8.79;94.90